sensor_id;sensor_type;location;lat;lon;timestamp;temperature;humidity
76384;SHT30;65204;48.606;7.598;2023-01-29T00:00:20;3.62;63.25
76384;SHT30;65204;48.606;7.598;2023-01-29T00:00:51;3.62;63.29
76384;SHT30;65204;48.606;7.598;2023-01-29T00:01:21;3.65;63.41
76384;SHT30;65204;48.606;7.598;2023-01-29T00:01:51;3.66;63.05
76384;SHT30;65204;48.606;7.598;2023-01-29T00:02:22;3.65;62.64
76384;SHT30;65204;48.606;7.598;2023-01-29T00:02:52;3.66;62.97
76384;SHT30;65204;48.606;7.598;2023-01-29T00:03:22;3.63;63.11
76384;SHT30;65204;48.606;7.598;2023-01-29T00:03:53;3.62;62.55
76384;SHT30;65204;48.606;7.598;2023-01-29T00:04:23;3.60;62.72
76384;SHT30;65204;48.606;7.598;2023-01-29T00:04:54;3.63;62.70
76384;SHT30;65204;48.606;7.598;2023-01-29T00:05:24;3.60;62.85
76384;SHT30;65204;48.606;7.598;2023-01-29T00:05:54;3.60;62.53
76384;SHT30;65204;48.606;7.598;2023-01-29T00:06:25;3.59;62.22
76384;SHT30;65204;48.606;7.598;2023-01-29T00:06:55;3.58;62.35
76384;SHT30;65204;48.606;7.598;2023-01-29T00:07:25;3.58;62.57
76384;SHT30;65204;48.606;7.598;2023-01-29T00:07:56;3.58;62.73
76384;SHT30;65204;48.606;7.598;2023-01-29T00:08:26;3.55;62.91
76384;SHT30;65204;48.606;7.598;2023-01-29T00:08:57;3.54;63.05
76384;SHT30;65204;48.606;7.598;2023-01-29T00:09:27;3.54;62.92
76384;SHT30;65204;48.606;7.598;2023-01-29T00:09:58;3.52;63.37
76384;SHT30;65204;48.606;7.598;2023-01-29T00:10:28;3.54;63.04
76384;SHT30;65204;48.606;7.598;2023-01-29T00:11:03;3.51;62.62
76384;SHT30;65204;48.606;7.598;2023-01-29T00:11:34;3.52;62.89
76384;SHT30;65204;48.606;7.598;2023-01-29T00:12:05;3.52;63.25
76384;SHT30;65204;48.606;7.598;2023-01-29T00:12:38;3.56;62.82
76384;SHT30;65204;48.606;7.598;2023-01-29T00:13:08;3.60;62.68
76384;SHT30;65204;48.606;7.598;2023-01-29T00:13:39;3.58;62.49
76384;SHT30;65204;48.606;7.598;2023-01-29T00:14:09;3.58;62.71
76384;SHT30;65204;48.606;7.598;2023-01-29T00:14:40;3.55;62.66
76384;SHT30;65204;48.606;7.598;2023-01-29T00:15:10;3.58;62.50
76384;SHT30;65204;48.606;7.598;2023-01-29T00:15:41;3.54;62.57
76384;SHT30;65204;48.606;7.598;2023-01-29T00:16:12;3.52;62.70
76384;SHT30;65204;48.606;7.598;2023-01-29T00:16:42;3.51;63.07
76384;SHT30;65204;48.606;7.598;2023-01-29T00:17:12;3.52;63.16
76384;SHT30;65204;48.606;7.598;2023-01-29T00:17:43;3.51;63.11
76384;SHT30;65204;48.606;7.598;2023-01-29T00:18:13;3.51;63.31
76384;SHT30;65204;48.606;7.598;2023-01-29T00:18:44;3.48;63.25
76384;SHT30;65204;48.606;7.598;2023-01-29T00:19:14;3.46;63.20
76384;SHT30;65204;48.606;7.598;2023-01-29T00:19:45;3.43;63.41
76384;SHT30;65204;48.606;7.598;2023-01-29T00:20:16;3.43;63.48
76384;SHT30;65204;48.606;7.598;2023-01-29T00:20:46;3.43;63.33
76384;SHT30;65204;48.606;7.598;2023-01-29T00:21:18;3.40;63.38
76384;SHT30;65204;48.606;7.598;2023-01-29T00:21:49;3.38;63.50
76384;SHT30;65204;48.606;7.598;2023-01-29T00:22:20;3.39;63.64
76384;SHT30;65204;48.606;7.598;2023-01-29T00:22:51;3.36;63.69
76384;SHT30;65204;48.606;7.598;2023-01-29T00:23:21;3.35;63.58
76384;SHT30;65204;48.606;7.598;2023-01-29T00:23:53;3.36;63.66
76384;SHT30;65204;48.606;7.598;2023-01-29T00:24:24;3.36;63.71
76384;SHT30;65204;48.606;7.598;2023-01-29T00:24:54;3.35;63.80
76384;SHT30;65204;48.606;7.598;2023-01-29T00:25:24;3.36;63.93
76384;SHT30;65204;48.606;7.598;2023-01-29T00:25:58;3.34;64.01
76384;SHT30;65204;48.606;7.598;2023-01-29T00:26:29;3.31;64.01
76384;SHT30;65204;48.606;7.598;2023-01-29T00:27:00;3.31;63.98
76384;SHT30;65204;48.606;7.598;2023-01-29T00:27:30;3.31;64.09
76384;SHT30;65204;48.606;7.598;2023-01-29T00:28:00;3.29;64.13
76384;SHT30;65204;48.606;7.598;2023-01-29T00:28:31;3.31;64.18
76384;SHT30;65204;48.606;7.598;2023-01-29T00:29:02;3.29;64.16
76384;SHT30;65204;48.606;7.598;2023-01-29T00:29:32;3.31;64.13
76384;SHT30;65204;48.606;7.598;2023-01-29T00:30:03;3.31;64.01
76384;SHT30;65204;48.606;7.598;2023-01-29T00:30:42;3.29;64.04
76384;SHT30;65204;48.606;7.598;2023-01-29T00:31:14;3.28;64.16
76384;SHT30;65204;48.606;7.598;2023-01-29T00:31:45;3.29;64.26
76384;SHT30;65204;48.606;7.598;2023-01-29T00:32:16;3.27;64.03
76384;SHT30;65204;48.606;7.598;2023-01-29T00:32:46;3.28;64.07
76384;SHT30;65204;48.606;7.598;2023-01-29T00:33:17;3.27;64.16
76384;SHT30;65204;48.606;7.598;2023-01-29T00:33:48;3.25;64.03
76384;SHT30;65204;48.606;7.598;2023-01-29T00:34:18;3.27;64.14
76384;SHT30;65204;48.606;7.598;2023-01-29T00:34:49;3.25;64.23
76384;SHT30;65204;48.606;7.598;2023-01-29T00:35:19;3.24;64.30
76384;SHT30;65204;48.606;7.598;2023-01-29T00:35:49;3.24;64.45
76384;SHT30;65204;48.606;7.598;2023-01-29T00:36:20;3.21;64.59
76384;SHT30;65204;48.606;7.598;2023-01-29T00:36:51;3.18;64.71
76384;SHT30;65204;48.606;7.598;2023-01-29T00:37:21;3.17;64.83
76384;SHT30;65204;48.606;7.598;2023-01-29T00:37:54;3.17;64.83
76384;SHT30;65204;48.606;7.598;2023-01-29T00:38:24;3.14;64.89
76384;SHT30;65204;48.606;7.598;2023-01-29T00:38:56;3.15;64.74
76384;SHT30;65204;48.606;7.598;2023-01-29T00:39:32;3.18;64.54
76384;SHT30;65204;48.606;7.598;2023-01-29T00:40:08;3.14;64.66
76384;SHT30;65204;48.606;7.598;2023-01-29T00:40:39;3.17;64.64
76384;SHT30;65204;48.606;7.598;2023-01-29T00:41:29;3.15;64.80
76384;SHT30;65204;48.606;7.598;2023-01-29T00:42:18;3.11;64.96
76384;SHT30;65204;48.606;7.598;2023-01-29T00:43:07;3.12;64.95
76384;SHT30;65204;48.606;7.598;2023-01-29T00:43:57;3.09;64.66
76384;SHT30;65204;48.606;7.598;2023-01-29T00:44:46;3.09;64.63
76384;SHT30;65204;48.606;7.598;2023-01-29T00:45:29;3.11;64.72
76384;SHT30;65204;48.606;7.598;2023-01-29T00:45:59;3.11;64.52
76384;SHT30;65204;48.606;7.598;2023-01-29T00:46:29;3.09;64.26
76384;SHT30;65204;48.606;7.598;2023-01-29T00:47:00;3.09;64.29
76384;SHT30;65204;48.606;7.598;2023-01-29T00:47:30;3.05;64.45
76384;SHT30;65204;48.606;7.598;2023-01-29T00:48:04;3.07;64.40
76384;SHT30;65204;48.606;7.598;2023-01-29T00:48:35;3.07;64.45
76384;SHT30;65204;48.606;7.598;2023-01-29T00:49:06;3.04;64.48
76384;SHT30;65204;48.606;7.598;2023-01-29T00:49:36;3.03;64.60
76384;SHT30;65204;48.606;7.598;2023-01-29T00:50:09;3.04;64.17
76384;SHT30;65204;48.606;7.598;2023-01-29T00:50:40;3.05;64.14
76384;SHT30;65204;48.606;7.598;2023-01-29T00:51:10;3.07;64.30
76384;SHT30;65204;48.606;7.598;2023-01-29T00:51:41;3.00;64.39
76384;SHT30;65204;48.606;7.598;2023-01-29T00:52:11;2.97;63.90
76384;SHT30;65204;48.606;7.598;2023-01-29T00:52:53;2.97;64.35
76384;SHT30;65204;48.606;7.598;2023-01-29T00:53:24;2.94;64.59
76384;SHT30;65204;48.606;7.598;2023-01-29T00:53:54;2.94;64.57
76384;SHT30;65204;48.606;7.598;2023-01-29T00:54:27;2.96;64.60
76384;SHT30;65204;48.606;7.598;2023-01-29T00:54:59;2.91;64.81
76384;SHT30;65204;48.606;7.598;2023-01-29T00:55:29;2.86;64.69
76384;SHT30;65204;48.606;7.598;2023-01-29T00:56:00;2.90;64.41
76384;SHT30;65204;48.606;7.598;2023-01-29T00:56:30;2.88;64.57
76384;SHT30;65204;48.606;7.598;2023-01-29T00:57:01;2.88;64.89
76384;SHT30;65204;48.606;7.598;2023-01-29T00:57:33;2.86;64.74
76384;SHT30;65204;48.606;7.598;2023-01-29T00:58:04;2.88;64.78
76384;SHT30;65204;48.606;7.598;2023-01-29T00:58:34;2.87;64.95
76384;SHT30;65204;48.606;7.598;2023-01-29T00:59:04;2.86;64.84
76384;SHT30;65204;48.606;7.598;2023-01-29T00:59:35;2.86;64.73
76384;SHT30;65204;48.606;7.598;2023-01-29T01:00:08;2.87;64.63
76384;SHT30;65204;48.606;7.598;2023-01-29T01:00:39;2.88;64.35
76384;SHT30;65204;48.606;7.598;2023-01-29T01:01:09;2.84;64.54
76384;SHT30;65204;48.606;7.598;2023-01-29T01:01:40;2.84;64.58
76384;SHT30;65204;48.606;7.598;2023-01-29T01:02:29;2.83;64.63
76384;SHT30;65204;48.606;7.598;2023-01-29T01:03:18;2.81;64.59
76384;SHT30;65204;48.606;7.598;2023-01-29T01:03:48;2.80;64.71
76384;SHT30;65204;48.606;7.598;2023-01-29T01:04:18;2.79;64.97
76384;SHT30;65204;48.606;7.598;2023-01-29T01:04:49;2.79;65.28
76384;SHT30;65204;48.606;7.598;2023-01-29T01:05:19;2.79;65.46
76384;SHT30;65204;48.606;7.598;2023-01-29T01:05:50;2.79;65.52
76384;SHT30;65204;48.606;7.598;2023-01-29T01:06:20;2.77;65.91
76384;SHT30;65204;48.606;7.598;2023-01-29T01:06:50;2.76;66.07
76384;SHT30;65204;48.606;7.598;2023-01-29T01:07:21;2.77;66.17
76384;SHT30;65204;48.606;7.598;2023-01-29T01:07:53;2.74;65.87
76384;SHT30;65204;48.606;7.598;2023-01-29T01:08:23;2.74;65.76
76384;SHT30;65204;48.606;7.598;2023-01-29T01:09:12;2.73;65.61
76384;SHT30;65204;48.606;7.598;2023-01-29T01:10:01;2.73;65.35
76384;SHT30;65204;48.606;7.598;2023-01-29T01:10:57;2.73;65.60
76384;SHT30;65204;48.606;7.598;2023-01-29T01:11:28;2.70;65.33
76384;SHT30;65204;48.606;7.598;2023-01-29T01:11:58;2.72;65.20
76384;SHT30;65204;48.606;7.598;2023-01-29T01:12:29;2.68;65.08
76384;SHT30;65204;48.606;7.598;2023-01-29T01:13:04;2.70;65.13
76384;SHT30;65204;48.606;7.598;2023-01-29T01:13:35;2.68;64.94
76384;SHT30;65204;48.606;7.598;2023-01-29T01:14:05;2.67;65.44
76384;SHT30;65204;48.606;7.598;2023-01-29T01:14:35;2.64;65.62
76384;SHT30;65204;48.606;7.598;2023-01-29T01:15:06;2.64;65.99
76384;SHT30;65204;48.606;7.598;2023-01-29T01:15:39;2.64;65.99
76384;SHT30;65204;48.606;7.598;2023-01-29T01:16:12;2.66;65.78
76384;SHT30;65204;48.606;7.598;2023-01-29T01:16:47;2.63;65.82
76384;SHT30;65204;48.606;7.598;2023-01-29T01:17:17;2.58;66.00
76384;SHT30;65204;48.606;7.598;2023-01-29T01:17:51;2.60;66.06
76384;SHT30;65204;48.606;7.598;2023-01-29T01:18:22;2.60;66.10
76384;SHT30;65204;48.606;7.598;2023-01-29T01:18:52;2.60;65.98
76384;SHT30;65204;48.606;7.598;2023-01-29T01:19:22;2.58;66.00
76384;SHT30;65204;48.606;7.598;2023-01-29T01:19:53;2.60;65.91
76384;SHT30;65204;48.606;7.598;2023-01-29T01:20:24;2.57;66.02
76384;SHT30;65204;48.606;7.598;2023-01-29T01:20:58;2.58;66.03
76384;SHT30;65204;48.606;7.598;2023-01-29T01:21:28;2.56;66.10
76384;SHT30;65204;48.606;7.598;2023-01-29T01:21:59;2.54;66.31
76384;SHT30;65204;48.606;7.598;2023-01-29T01:22:29;2.57;66.25
76384;SHT30;65204;48.606;7.598;2023-01-29T01:23:01;2.57;66.35
76384;SHT30;65204;48.606;7.598;2023-01-29T01:23:31;2.56;66.41
76384;SHT30;65204;48.606;7.598;2023-01-29T01:24:01;2.50;66.41
76384;SHT30;65204;48.606;7.598;2023-01-29T01:24:35;2.54;66.55
76384;SHT30;65204;48.606;7.598;2023-01-29T01:25:05;2.56;66.58
76384;SHT30;65204;48.606;7.598;2023-01-29T01:25:36;2.56;66.60
76384;SHT30;65204;48.606;7.598;2023-01-29T01:26:08;2.54;66.45
76384;SHT30;65204;48.606;7.598;2023-01-29T01:26:38;2.56;66.17
76384;SHT30;65204;48.606;7.598;2023-01-29T01:27:09;2.56;66.11
76384;SHT30;65204;48.606;7.598;2023-01-29T01:27:39;2.56;66.04
76384;SHT30;65204;48.606;7.598;2023-01-29T01:28:10;2.58;66.17
76384;SHT30;65204;48.606;7.598;2023-01-29T01:28:40;2.57;66.23
76384;SHT30;65204;48.606;7.598;2023-01-29T01:29:11;2.57;66.12
76384;SHT30;65204;48.606;7.598;2023-01-29T01:29:41;2.56;66.12
76384;SHT30;65204;48.606;7.598;2023-01-29T01:30:14;2.57;66.39
76384;SHT30;65204;48.606;7.598;2023-01-29T01:30:44;2.61;66.29
76384;SHT30;65204;48.606;7.598;2023-01-29T01:31:15;2.57;66.27
76384;SHT30;65204;48.606;7.598;2023-01-29T01:31:45;2.54;66.25
76384;SHT30;65204;48.606;7.598;2023-01-29T01:32:16;2.60;66.19
76384;SHT30;65204;48.606;7.598;2023-01-29T01:32:46;2.58;66.15
76384;SHT30;65204;48.606;7.598;2023-01-29T01:33:16;2.56;66.21
76384;SHT30;65204;48.606;7.598;2023-01-29T01:33:47;2.58;66.29
76384;SHT30;65204;48.606;7.598;2023-01-29T01:34:17;2.58;66.37
76384;SHT30;65204;48.606;7.598;2023-01-29T01:34:50;2.61;66.37
76384;SHT30;65204;48.606;7.598;2023-01-29T01:35:20;2.61;66.38
76384;SHT30;65204;48.606;7.598;2023-01-29T01:35:51;2.60;66.44
76384;SHT30;65204;48.606;7.598;2023-01-29T01:36:21;2.60;66.82
76384;SHT30;65204;48.606;7.598;2023-01-29T01:36:52;2.60;66.76
76384;SHT30;65204;48.606;7.598;2023-01-29T01:37:23;2.60;66.79
76384;SHT30;65204;48.606;7.598;2023-01-29T01:37:53;2.63;66.67
76384;SHT30;65204;48.606;7.598;2023-01-29T01:38:23;2.66;66.20
76384;SHT30;65204;48.606;7.598;2023-01-29T01:38:54;2.64;66.09
76384;SHT30;65204;48.606;7.598;2023-01-29T01:39:24;2.61;66.10
76384;SHT30;65204;48.606;7.598;2023-01-29T01:39:54;2.66;66.06
76384;SHT30;65204;48.606;7.598;2023-01-29T01:40:27;2.67;66.04
76384;SHT30;65204;48.606;7.598;2023-01-29T01:40:57;2.66;66.00
76384;SHT30;65204;48.606;7.598;2023-01-29T01:41:28;2.64;65.87
76384;SHT30;65204;48.606;7.598;2023-01-29T01:41:59;2.64;65.82
76384;SHT30;65204;48.606;7.598;2023-01-29T01:42:29;2.64;65.78
76384;SHT30;65204;48.606;7.598;2023-01-29T01:43:00;2.68;65.79
76384;SHT30;65204;48.606;7.598;2023-01-29T01:43:55;2.68;65.90
76384;SHT30;65204;48.606;7.598;2023-01-29T01:45:29;2.68;66.01
76384;SHT30;65204;48.606;7.598;2023-01-29T01:46:00;2.68;65.88
76384;SHT30;65204;48.606;7.598;2023-01-29T01:46:32;2.70;65.87
76384;SHT30;65204;48.606;7.598;2023-01-29T01:47:03;2.68;65.98
76384;SHT30;65204;48.606;7.598;2023-01-29T01:47:41;2.66;66.14
76384;SHT30;65204;48.606;7.598;2023-01-29T01:48:16;2.73;66.15
76384;SHT30;65204;48.606;7.598;2023-01-29T01:49:10;2.67;66.16
76384;SHT30;65204;48.606;7.598;2023-01-29T01:49:43;2.68;65.87
76384;SHT30;65204;48.606;7.598;2023-01-29T01:50:17;2.67;66.01
76384;SHT30;65204;48.606;7.598;2023-01-29T01:50:54;2.66;66.16
76384;SHT30;65204;48.606;7.598;2023-01-29T01:51:29;2.67;66.11
76384;SHT30;65204;48.606;7.598;2023-01-29T01:52:01;2.68;66.17
76384;SHT30;65204;48.606;7.598;2023-01-29T01:52:32;2.67;66.30
76384;SHT30;65204;48.606;7.598;2023-01-29T01:53:10;2.68;66.35
76384;SHT30;65204;48.606;7.598;2023-01-29T01:53:52;2.68;66.53
76384;SHT30;65204;48.606;7.598;2023-01-29T01:54:27;2.72;66.40
76384;SHT30;65204;48.606;7.598;2023-01-29T01:54:58;2.74;65.93
76384;SHT30;65204;48.606;7.598;2023-01-29T01:55:30;2.74;65.76
76384;SHT30;65204;48.606;7.598;2023-01-29T01:56:06;2.74;65.81
76384;SHT30;65204;48.606;7.598;2023-01-29T01:56:45;2.74;65.98
76384;SHT30;65204;48.606;7.598;2023-01-29T01:57:20;2.67;66.03
76384;SHT30;65204;48.606;7.598;2023-01-29T01:58:58;2.74;66.20
76384;SHT30;65204;48.606;7.598;2023-01-29T01:59:28;2.74;66.17
76384;SHT30;65204;48.606;7.598;2023-01-29T02:00:05;2.74;66.16
76384;SHT30;65204;48.606;7.598;2023-01-29T02:00:40;2.76;65.82
76384;SHT30;65204;48.606;7.598;2023-01-29T02:01:11;2.76;65.89
76384;SHT30;65204;48.606;7.598;2023-01-29T02:01:45;2.79;65.81
76384;SHT30;65204;48.606;7.598;2023-01-29T02:02:19;2.80;65.81
76384;SHT30;65204;48.606;7.598;2023-01-29T02:03:09;2.79;65.90
76384;SHT30;65204;48.606;7.598;2023-01-29T02:04:05;2.81;65.92
76384;SHT30;65204;48.606;7.598;2023-01-29T02:04:55;2.84;65.85
76384;SHT30;65204;48.606;7.598;2023-01-29T02:05:45;2.83;65.63
76384;SHT30;65204;48.606;7.598;2023-01-29T02:06:36;2.81;65.61
76384;SHT30;65204;48.606;7.598;2023-01-29T02:07:27;2.83;65.58
76384;SHT30;65204;48.606;7.598;2023-01-29T02:08:26;2.84;65.57
76384;SHT30;65204;48.606;7.598;2023-01-29T02:09:22;2.86;65.52
76384;SHT30;65204;48.606;7.598;2023-01-29T02:10:11;2.87;65.43
76384;SHT30;65204;48.606;7.598;2023-01-29T02:10:45;2.86;65.36
76384;SHT30;65204;48.606;7.598;2023-01-29T02:11:16;2.86;65.30
76384;SHT30;65204;48.606;7.598;2023-01-29T02:11:47;2.83;65.52
76384;SHT30;65204;48.606;7.598;2023-01-29T02:12:18;2.84;65.69
76384;SHT30;65204;48.606;7.598;2023-01-29T02:12:50;2.84;65.56
76384;SHT30;65204;48.606;7.598;2023-01-29T02:13:20;2.84;65.41
76384;SHT30;65204;48.606;7.598;2023-01-29T02:13:52;2.81;65.37
76384;SHT30;65204;48.606;7.598;2023-01-29T02:14:23;2.86;65.30
76384;SHT30;65204;48.606;7.598;2023-01-29T02:14:54;2.87;65.31
76384;SHT30;65204;48.606;7.598;2023-01-29T02:15:24;2.83;65.31
76384;SHT30;65204;48.606;7.598;2023-01-29T02:15:55;2.84;65.19
76384;SHT30;65204;48.606;7.598;2023-01-29T02:16:25;2.86;65.27
76384;SHT30;65204;48.606;7.598;2023-01-29T02:16:56;2.87;65.44
76384;SHT30;65204;48.606;7.598;2023-01-29T02:17:26;2.88;65.32
76384;SHT30;65204;48.606;7.598;2023-01-29T02:17:56;2.90;65.32
76384;SHT30;65204;48.606;7.598;2023-01-29T02:18:27;2.88;65.34
76384;SHT30;65204;48.606;7.598;2023-01-29T02:18:57;2.88;65.32
76384;SHT30;65204;48.606;7.598;2023-01-29T02:20:22;2.91;65.18
76384;SHT30;65204;48.606;7.598;2023-01-29T02:22:28;2.93;64.50
76384;SHT30;65204;48.606;7.598;2023-01-29T02:24:38;2.87;65.08
76384;SHT30;65204;48.606;7.598;2023-01-29T02:25:22;2.87;65.26
76384;SHT30;65204;48.606;7.598;2023-01-29T02:26:09;2.86;65.17
76384;SHT30;65204;48.606;7.598;2023-01-29T02:27:11;2.83;65.20
76384;SHT30;65204;48.606;7.598;2023-01-29T02:30:36;2.79;65.36
76384;SHT30;65204;48.606;7.598;2023-01-29T02:31:46;2.74;65.51
76384;SHT30;65204;48.606;7.598;2023-01-29T02:35:55;2.72;65.77
76384;SHT30;65204;48.606;7.598;2023-01-29T02:36:37;2.72;65.89
76384;SHT30;65204;48.606;7.598;2023-01-29T02:37:12;2.77;65.64
76384;SHT30;65204;48.606;7.598;2023-01-29T02:39:03;2.77;65.69
76384;SHT30;65204;48.606;7.598;2023-01-29T02:40:12;2.79;65.74
76384;SHT30;65204;48.606;7.598;2023-01-29T02:40:52;2.80;65.28
76384;SHT30;65204;48.606;7.598;2023-01-29T02:42:54;2.79;64.93
76384;SHT30;65204;48.606;7.598;2023-01-29T02:44:19;2.76;65.29
76384;SHT30;65204;48.606;7.598;2023-01-29T02:45:49;2.77;65.06
76384;SHT30;65204;48.606;7.598;2023-01-29T02:46:35;2.77;64.99
76384;SHT30;65204;48.606;7.598;2023-01-29T02:47:18;2.76;65.14
76384;SHT30;65204;48.606;7.598;2023-01-29T02:47:59;2.77;65.40
76384;SHT30;65204;48.606;7.598;2023-01-29T02:48:43;2.76;65.33
76384;SHT30;65204;48.606;7.598;2023-01-29T02:49:35;2.73;65.45
76384;SHT30;65204;48.606;7.598;2023-01-29T02:51:00;2.73;65.56
76384;SHT30;65204;48.606;7.598;2023-01-29T02:51:09;2.74;65.20
76384;SHT30;65204;48.606;7.598;2023-01-29T02:52:40;2.74;64.99
76384;SHT30;65204;48.606;7.598;2023-01-29T02:53:42;2.74;64.64
76384;SHT30;65204;48.606;7.598;2023-01-29T02:54:38;2.76;65.04
76384;SHT30;65204;48.606;7.598;2023-01-29T02:55:33;2.74;64.93
76384;SHT30;65204;48.606;7.598;2023-01-29T02:56:15;2.72;64.48
76384;SHT30;65204;48.606;7.598;2023-01-29T02:56:57;2.72;64.61
76384;SHT30;65204;48.606;7.598;2023-01-29T02:57:39;2.68;65.01
76384;SHT30;65204;48.606;7.598;2023-01-29T02:58:29;2.67;65.24
76384;SHT30;65204;48.606;7.598;2023-01-29T02:59:15;2.68;65.24
76384;SHT30;65204;48.606;7.598;2023-01-29T03:00:02;2.68;65.00
76384;SHT30;65204;48.606;7.598;2023-01-29T03:00:40;2.68;64.92
76384;SHT30;65204;48.606;7.598;2023-01-29T03:01:22;2.67;64.83
76384;SHT30;65204;48.606;7.598;2023-01-29T03:02:08;2.68;65.08
76384;SHT30;65204;48.606;7.598;2023-01-29T03:02:48;2.68;64.86
76384;SHT30;65204;48.606;7.598;2023-01-29T03:03:25;2.72;64.85
76384;SHT30;65204;48.606;7.598;2023-01-29T03:04:07;2.67;64.45
76384;SHT30;65204;48.606;7.598;2023-01-29T03:04:43;2.68;64.17
76384;SHT30;65204;48.606;7.598;2023-01-29T03:05:21;2.67;64.24
76384;SHT30;65204;48.606;7.598;2023-01-29T03:06:45;2.66;64.63
76384;SHT30;65204;48.606;7.598;2023-01-29T03:07:24;2.63;64.74
76384;SHT30;65204;48.606;7.598;2023-01-29T03:08:27;2.66;64.99
76384;SHT30;65204;48.606;7.598;2023-01-29T03:09:10;2.66;65.11
76384;SHT30;65204;48.606;7.598;2023-01-29T03:09:47;2.72;65.21
76384;SHT30;65204;48.606;7.598;2023-01-29T03:10:25;2.68;65.13
76384;SHT30;65204;48.606;7.598;2023-01-29T03:11:02;2.70;65.19
76384;SHT30;65204;48.606;7.598;2023-01-29T03:11:38;2.67;65.18
76384;SHT30;65204;48.606;7.598;2023-01-29T03:12:14;2.68;64.97
76384;SHT30;65204;48.606;7.598;2023-01-29T03:13:09;2.72;65.17
76384;SHT30;65204;48.606;7.598;2023-01-29T03:13:44;2.76;65.06
76384;SHT30;65204;48.606;7.598;2023-01-29T03:14:20;2.74;65.08
76384;SHT30;65204;48.606;7.598;2023-01-29T03:14:52;2.76;65.17
76384;SHT30;65204;48.606;7.598;2023-01-29T03:15:47;2.79;64.99
76384;SHT30;65204;48.606;7.598;2023-01-29T03:16:30;2.76;64.88
76384;SHT30;65204;48.606;7.598;2023-01-29T03:17:02;2.76;64.37
76384;SHT30;65204;48.606;7.598;2023-01-29T03:17:39;2.74;64.10
76384;SHT30;65204;48.606;7.598;2023-01-29T03:18:14;2.74;64.14
76384;SHT30;65204;48.606;7.598;2023-01-29T03:19:00;2.73;64.16
76384;SHT30;65204;48.606;7.598;2023-01-29T03:19:40;2.76;64.25
76384;SHT30;65204;48.606;7.598;2023-01-29T03:20:17;2.79;64.12
76384;SHT30;65204;48.606;7.598;2023-01-29T03:20:52;2.80;63.71
76384;SHT30;65204;48.606;7.598;2023-01-29T03:21:33;2.83;63.84
76384;SHT30;65204;48.606;7.598;2023-01-29T03:22:24;2.84;64.14
76384;SHT30;65204;48.606;7.598;2023-01-29T03:23:01;2.86;64.27
76384;SHT30;65204;48.606;7.598;2023-01-29T03:23:34;2.84;64.25
76384;SHT30;65204;48.606;7.598;2023-01-29T03:24:36;2.87;64.23
76384;SHT30;65204;48.606;7.598;2023-01-29T03:25:27;2.87;63.97
76384;SHT30;65204;48.606;7.598;2023-01-29T03:26:17;2.88;63.93
76384;SHT30;65204;48.606;7.598;2023-01-29T03:27:09;2.87;63.73
76384;SHT30;65204;48.606;7.598;2023-01-29T03:28:02;2.86;64.00
76384;SHT30;65204;48.606;7.598;2023-01-29T03:28:52;2.86;64.27
76384;SHT30;65204;48.606;7.598;2023-01-29T03:29:42;2.86;64.54
76384;SHT30;65204;48.606;7.598;2023-01-29T03:30:34;2.86;64.45
76384;SHT30;65204;48.606;7.598;2023-01-29T03:31:25;2.88;64.37
76384;SHT30;65204;48.606;7.598;2023-01-29T03:32:16;2.87;64.43
76384;SHT30;65204;48.606;7.598;2023-01-29T03:32:48;2.90;64.31
76384;SHT30;65204;48.606;7.598;2023-01-29T03:33:23;2.87;64.27
76384;SHT30;65204;48.606;7.598;2023-01-29T03:34:08;2.87;64.34
76384;SHT30;65204;48.606;7.598;2023-01-29T03:34:48;2.83;64.59
76384;SHT30;65204;48.606;7.598;2023-01-29T03:35:24;2.84;64.53
76384;SHT30;65204;48.606;7.598;2023-01-29T03:36:08;2.87;64.40
76384;SHT30;65204;48.606;7.598;2023-01-29T03:36:45;2.90;64.34
76384;SHT30;65204;48.606;7.598;2023-01-29T03:37:40;2.90;64.47
76384;SHT30;65204;48.606;7.598;2023-01-29T03:38:13;2.91;64.37
76384;SHT30;65204;48.606;7.598;2023-01-29T03:38:44;2.90;64.40
76384;SHT30;65204;48.606;7.598;2023-01-29T03:39:15;2.86;64.47
76384;SHT30;65204;48.606;7.598;2023-01-29T03:39:46;2.87;64.53
76384;SHT30;65204;48.606;7.598;2023-01-29T03:40:16;2.84;64.57
76384;SHT30;65204;48.606;7.598;2023-01-29T03:41:18;2.84;64.64
76384;SHT30;65204;48.606;7.598;2023-01-29T03:42:23;2.87;64.49
76384;SHT30;65204;48.606;7.598;2023-01-29T03:43:09;2.88;64.35
76384;SHT30;65204;48.606;7.598;2023-01-29T03:44:53;2.90;64.00
76384;SHT30;65204;48.606;7.598;2023-01-29T03:46:10;2.90;64.20
76384;SHT30;65204;48.606;7.598;2023-01-29T03:47:48;2.86;64.54
76384;SHT30;65204;48.606;7.598;2023-01-29T03:48:39;2.87;64.65
76384;SHT30;65204;48.606;7.598;2023-01-29T03:51:39;2.93;64.41
76384;SHT30;65204;48.606;7.598;2023-01-29T03:52:20;2.97;64.29
76384;SHT30;65204;48.606;7.598;2023-01-29T03:53:47;2.88;64.29
76384;SHT30;65204;48.606;7.598;2023-01-29T03:54:31;2.88;64.26
76384;SHT30;65204;48.606;7.598;2023-01-29T03:55:13;2.90;64.12
76384;SHT30;65204;48.606;7.598;2023-01-29T03:56:00;2.91;63.91
76384;SHT30;65204;48.606;7.598;2023-01-29T03:57:35;2.91;64.09
76384;SHT30;65204;48.606;7.598;2023-01-29T03:58:32;2.93;63.78
76384;SHT30;65204;48.606;7.598;2023-01-29T04:00:09;2.91;63.76
76384;SHT30;65204;48.606;7.598;2023-01-29T04:00:57;2.88;63.68
76384;SHT30;65204;48.606;7.598;2023-01-29T04:01:38;2.87;64.04
76384;SHT30;65204;48.606;7.598;2023-01-29T04:02:15;2.93;64.11
76384;SHT30;65204;48.606;7.598;2023-01-29T04:03:03;2.90;63.90
76384;SHT30;65204;48.606;7.598;2023-01-29T04:03:39;2.88;63.93
76384;SHT30;65204;48.606;7.598;2023-01-29T04:04:23;2.86;64.12
76384;SHT30;65204;48.606;7.598;2023-01-29T04:04:58;2.90;64.10
76384;SHT30;65204;48.606;7.598;2023-01-29T04:05:46;2.91;64.23
76384;SHT30;65204;48.606;7.598;2023-01-29T04:06:25;2.88;64.09
76384;SHT30;65204;48.606;7.598;2023-01-29T04:07:01;2.87;64.06
76384;SHT30;65204;48.606;7.598;2023-01-29T04:07:35;2.86;64.12
76384;SHT30;65204;48.606;7.598;2023-01-29T04:08:10;2.91;64.45
76384;SHT30;65204;48.606;7.598;2023-01-29T04:09:03;2.90;64.22
76384;SHT30;65204;48.606;7.598;2023-01-29T04:09:44;2.90;64.17
76384;SHT30;65204;48.606;7.598;2023-01-29T04:10:18;2.88;64.36
76384;SHT30;65204;48.606;7.598;2023-01-29T04:10:51;2.93;64.38
76384;SHT30;65204;48.606;7.598;2023-01-29T04:11:26;2.91;64.22
76384;SHT30;65204;48.606;7.598;2023-01-29T04:12:07;2.90;64.25
76384;SHT30;65204;48.606;7.598;2023-01-29T04:12:48;2.93;64.28
76384;SHT30;65204;48.606;7.598;2023-01-29T04:13:21;2.91;64.08
76384;SHT30;65204;48.606;7.598;2023-01-29T04:13:53;2.93;64.32
76384;SHT30;65204;48.606;7.598;2023-01-29T04:14:24;2.96;64.08
76384;SHT30;65204;48.606;7.598;2023-01-29T04:14:56;2.97;63.93
76384;SHT30;65204;48.606;7.598;2023-01-29T04:15:31;2.97;63.45
76384;SHT30;65204;48.606;7.598;2023-01-29T04:16:05;2.96;63.32
76384;SHT30;65204;48.606;7.598;2023-01-29T04:16:41;2.94;63.78
76384;SHT30;65204;48.606;7.598;2023-01-29T04:17:35;2.97;63.54
76384;SHT30;65204;48.606;7.598;2023-01-29T04:18:07;2.96;63.42
76384;SHT30;65204;48.606;7.598;2023-01-29T04:18:37;2.96;63.44
76384;SHT30;65204;48.606;7.598;2023-01-29T04:19:07;2.93;63.64